Castlederg, United Kingdom
Current Conditions -  °F | °C
As of 6:20 AM on Wednesday 26 Nov 2014 (Local Time) from EGAE Reporting Station
Moderate Fog Moderate Fog  
Wind Chill: 34°   Ceiling: Unl
Heat Index: 37°   Visibility: 3mi
Dew Point: 37°   Wind: 5mph
Humidity: 100%   Direction: 330°NNW
Pressure: 29.97"   Gusts: NA
Location:  54.7°N, 7.6°W
Report Text: EGAE 260620Z 33004KT 280V050 5000 VCFG 03/03 Q1015
Loading
Personal Weather Stations






























Interactive Weather Map New forecast layout! Learn more

10-Day Weather Forecast

Advertisements
Track Severe Weather on mobile